sensor_id;sensor_type;location;lat;lon;timestamp;temperature;humidity
5276;DHT22;2661;50.786;12.728;2023-03-03T00:02:27;-1.90;99.90
5276;DHT22;2661;50.786;12.728;2023-03-03T00:04:54;-1.90;99.90
5276;DHT22;2661;50.786;12.728;2023-03-03T00:07:21;-1.80;99.10
5276;DHT22;2661;50.786;12.728;2023-03-03T00:09:48;-1.70;99.20
5276;DHT22;2661;50.786;12.728;2023-03-03T00:14:48;-1.50;94.30
5276;DHT22;2661;50.786;12.728;2023-03-03T00:17:18;-1.50;97.40
5276;DHT22;2661;50.786;12.728;2023-03-03T00:19:46;-1.40;88.20
5276;DHT22;2661;50.786;12.728;2023-03-03T00:22:13;-1.40;94.70
5276;DHT22;2661;50.786;12.728;2023-03-03T00:24:41;-1.40;99.90
5276;DHT22;2661;50.786;12.728;2023-03-03T00:27:15;-1.30;91.90
5276;DHT22;2661;50.786;12.728;2023-03-03T00:29:54;-1.20;92.50
5276;DHT22;2661;50.786;12.728;2023-03-03T00:32:35;-1.10;91.40
5276;DHT22;2661;50.786;12.728;2023-03-03T00:35:18;-1.10;89.40
5276;DHT22;2661;50.786;12.728;2023-03-03T00:37:47;-1.00;88.50
5276;DHT22;2661;50.786;12.728;2023-03-03T00:40:22;-0.90;93.80
5276;DHT22;2661;50.786;12.728;2023-03-03T00:42:50;-0.90;95.00
5276;DHT22;2661;50.786;12.728;2023-03-03T00:46:02;-0.80;95.00
5276;DHT22;2661;50.786;12.728;2023-03-03T00:48:10;-0.70;93.60
5276;DHT22;2661;50.786;12.728;2023-03-03T00:50:42;-0.70;92.80
5276;DHT22;2661;50.786;12.728;2023-03-03T00:55:38;-0.60;92.00
5276;DHT22;2661;50.786;12.728;2023-03-03T00:58:05;-0.60;85.90
5276;DHT22;2661;50.786;12.728;2023-03-03T01:00:32;-0.60;93.10
5276;DHT22;2661;50.786;12.728;2023-03-03T01:03:04;-0.50;99.90
5276;DHT22;2661;50.786;12.728;2023-03-03T01:05:30;-0.50;95.00
5276;DHT22;2661;50.786;12.728;2023-03-03T01:07:57;-0.50;99.90
5276;DHT22;2661;50.786;12.728;2023-03-03T01:10:24;-0.40;99.90
5276;DHT22;2661;50.786;12.728;2023-03-03T01:12:52;-0.40;99.90
5276;DHT22;2661;50.786;12.728;2023-03-03T01:15:19;-0.30;99.90
5276;DHT22;2661;50.786;12.728;2023-03-03T01:17:45;-0.40;99.90
5276;DHT22;2661;50.786;12.728;2023-03-03T01:20:13;-0.30;99.90
5276;DHT22;2661;50.786;12.728;2023-03-03T01:22:39;-0.30;99.90
5276;DHT22;2661;50.786;12.728;2023-03-03T01:25:06;-0.30;99.90
5276;DHT22;2661;50.786;12.728;2023-03-03T01:27:34;-0.30;99.90
5276;DHT22;2661;50.786;12.728;2023-03-03T01:30:01;-0.20;99.90
5276;DHT22;2661;50.786;12.728;2023-03-03T01:32:28;-0.20;99.90
5276;DHT22;2661;50.786;12.728;2023-03-03T01:34:55;-0.20;99.90
5276;DHT22;2661;50.786;12.728;2023-03-03T01:37:22;-0.20;99.90
5276;DHT22;2661;50.786;12.728;2023-03-03T01:39:52;-0.20;99.90
5276;DHT22;2661;50.786;12.728;2023-03-03T01:42:19;-0.10;99.90
5276;DHT22;2661;50.786;12.728;2023-03-03T01:44:46;-0.10;99.90
5276;DHT22;2661;50.786;12.728;2023-03-03T01:47:16;-0.10;99.90
5276;DHT22;2661;50.786;12.728;2023-03-03T01:50:04;0.00;99.90
5276;DHT22;2661;50.786;12.728;2023-03-03T01:52:32;0.00;99.90
5276;DHT22;2661;50.786;12.728;2023-03-03T01:55:01;0.00;99.90
5276;DHT22;2661;50.786;12.728;2023-03-03T01:57:29;0.00;99.90
5276;DHT22;2661;50.786;12.728;2023-03-03T01:59:57;0.00;99.90
5276;DHT22;2661;50.786;12.728;2023-03-03T02:02:25;0.00;99.90
5276;DHT22;2661;50.786;12.728;2023-03-03T02:04:53;0.00;99.90
5276;DHT22;2661;50.786;12.728;2023-03-03T02:07:19;0.10;99.90
5276;DHT22;2661;50.786;12.728;2023-03-03T02:12:32;0.10;99.90
5276;DHT22;2661;50.786;12.728;2023-03-03T02:14:59;0.10;99.90
5276;DHT22;2661;50.786;12.728;2023-03-03T02:17:25;0.10;99.90
5276;DHT22;2661;50.786;12.728;2023-03-03T02:20:02;0.10;99.90
5276;DHT22;2661;50.786;12.728;2023-03-03T02:22:34;0.10;99.90
5276;DHT22;2661;50.786;12.728;2023-03-03T02:25:06;0.00;99.90
5276;DHT22;2661;50.786;12.728;2023-03-03T02:27:34;-0.10;1.00
5276;DHT22;2661;50.786;12.728;2023-03-03T02:30:09;0.00;1.00
5276;DHT22;2661;50.786;12.728;2023-03-03T02:32:36;0.00;1.00
5276;DHT22;2661;50.786;12.728;2023-03-03T02:35:19;0.00;99.90
5276;DHT22;2661;50.786;12.728;2023-03-03T02:37:50;0.00;1.00
5276;DHT22;2661;50.786;12.728;2023-03-03T02:40:17;0.10;1.00
5276;DHT22;2661;50.786;12.728;2023-03-03T02:42:47;0.10;1.00
5276;DHT22;2661;50.786;12.728;2023-03-03T02:45:15;0.10;1.00
5276;DHT22;2661;50.786;12.728;2023-03-03T02:47:47;0.20;1.00
5276;DHT22;2661;50.786;12.728;2023-03-03T02:50:14;0.30;1.00
5276;DHT22;2661;50.786;12.728;2023-03-03T02:52:40;0.30;1.00
5276;DHT22;2661;50.786;12.728;2023-03-03T02:55:07;0.30;1.00
5276;DHT22;2661;50.786;12.728;2023-03-03T02:57:34;0.30;1.00
5276;DHT22;2661;50.786;12.728;2023-03-03T03:00:00;0.20;1.00
5276;DHT22;2661;50.786;12.728;2023-03-03T03:02:27;0.10;1.00
5276;DHT22;2661;50.786;12.728;2023-03-03T03:04:53;0.10;1.00
5276;DHT22;2661;50.786;12.728;2023-03-03T03:07:20;0.20;1.00
5276;DHT22;2661;50.786;12.728;2023-03-03T03:09:46;0.20;1.00
5276;DHT22;2661;50.786;12.728;2023-03-03T03:12:13;0.10;1.00
5276;DHT22;2661;50.786;12.728;2023-03-03T03:14:41;0.20;1.00
5276;DHT22;2661;50.786;12.728;2023-03-03T03:17:07;0.10;1.00
5276;DHT22;2661;50.786;12.728;2023-03-03T03:19:34;0.00;1.00
5276;DHT22;2661;50.786;12.728;2023-03-03T03:22:00;0.00;1.00
5276;DHT22;2661;50.786;12.728;2023-03-03T03:24:27;0.00;1.00
5276;DHT22;2661;50.786;12.728;2023-03-03T03:26:55;0.00;1.00
5276;DHT22;2661;50.786;12.728;2023-03-03T03:29:21;0.00;1.00
5276;DHT22;2661;50.786;12.728;2023-03-03T03:31:48;-0.10;99.90
5276;DHT22;2661;50.786;12.728;2023-03-03T03:34:14;-0.10;1.00
5276;DHT22;2661;50.786;12.728;2023-03-03T03:36:41;-0.10;99.90
5276;DHT22;2661;50.786;12.728;2023-03-03T03:39:08;-0.20;99.90
5276;DHT22;2661;50.786;12.728;2023-03-03T03:41:34;-0.30;99.90
5276;DHT22;2661;50.786;12.728;2023-03-03T03:44:01;-0.30;1.00
5276;DHT22;2661;50.786;12.728;2023-03-03T03:46:27;-0.40;1.00
5276;DHT22;2661;50.786;12.728;2023-03-03T03:48:54;-0.40;1.00
5276;DHT22;2661;50.786;12.728;2023-03-03T03:51:21;-0.40;1.00
5276;DHT22;2661;50.786;12.728;2023-03-03T03:53:47;-0.40;1.00
5276;DHT22;2661;50.786;12.728;2023-03-03T03:56:14;-0.30;1.00
5276;DHT22;2661;50.786;12.728;2023-03-03T03:58:40;-0.40;1.00
5276;DHT22;2661;50.786;12.728;2023-03-03T04:01:07;-0.50;1.00
5276;DHT22;2661;50.786;12.728;2023-03-03T04:03:34;-0.50;1.00
5276;DHT22;2661;50.786;12.728;2023-03-03T04:06:01;-0.60;1.00
5276;DHT22;2661;50.786;12.728;2023-03-03T04:08:27;-0.60;1.00
5276;DHT22;2661;50.786;12.728;2023-03-03T04:10:54;-0.60;1.00
5276;DHT22;2661;50.786;12.728;2023-03-03T04:13:21;-0.60;1.00
5276;DHT22;2661;50.786;12.728;2023-03-03T04:15:48;-0.60;1.00
5276;DHT22;2661;50.786;12.728;2023-03-03T04:18:15;-0.60;1.00
5276;DHT22;2661;50.786;12.728;2023-03-03T04:20:41;-0.50;1.00
5276;DHT22;2661;50.786;12.728;2023-03-03T04:23:08;-0.50;1.00
5276;DHT22;2661;50.786;12.728;2023-03-03T04:25:34;-0.40;1.00
5276;DHT22;2661;50.786;12.728;2023-03-03T04:28:01;-0.40;1.00
5276;DHT22;2661;50.786;12.728;2023-03-03T04:30:30;-0.50;1.00
5276;DHT22;2661;50.786;12.728;2023-03-03T04:32:57;-0.50;1.00
5276;DHT22;2661;50.786;12.728;2023-03-03T04:35:24;-0.50;1.00
5276;DHT22;2661;50.786;12.728;2023-03-03T04:37:50;-0.40;1.00
5276;DHT22;2661;50.786;12.728;2023-03-03T04:40:17;-0.50;1.00
5276;DHT22;2661;50.786;12.728;2023-03-03T04:42:44;-0.50;1.00
5276;DHT22;2661;50.786;12.728;2023-03-03T04:45:11;-0.40;1.00
5276;DHT22;2661;50.786;12.728;2023-03-03T04:47:37;-0.40;1.00
5276;DHT22;2661;50.786;12.728;2023-03-03T04:50:04;-0.50;1.00
5276;DHT22;2661;50.786;12.728;2023-03-03T04:52:31;-0.50;1.00
5276;DHT22;2661;50.786;12.728;2023-03-03T04:54:59;-0.50;1.00
5276;DHT22;2661;50.786;12.728;2023-03-03T04:57:26;-0.50;1.00
5276;DHT22;2661;50.786;12.728;2023-03-03T04:59:53;-0.50;1.00
5276;DHT22;2661;50.786;12.728;2023-03-03T05:02:20;-0.50;1.00
5276;DHT22;2661;50.786;12.728;2023-03-03T05:04:46;-0.60;1.00
5276;DHT22;2661;50.786;12.728;2023-03-03T05:07:13;-0.60;1.00
5276;DHT22;2661;50.786;12.728;2023-03-03T05:09:39;-0.50;1.00
5276;DHT22;2661;50.786;12.728;2023-03-03T05:12:06;-0.40;1.00
5276;DHT22;2661;50.786;12.728;2023-03-03T05:14:33;-0.50;1.00
5276;DHT22;2661;50.786;12.728;2023-03-03T05:16:59;-0.40;1.00
5276;DHT22;2661;50.786;12.728;2023-03-03T05:19:26;-0.40;1.00
5276;DHT22;2661;50.786;12.728;2023-03-03T05:21:53;-0.30;1.00
5276;DHT22;2661;50.786;12.728;2023-03-03T05:24:20;-0.40;1.00
5276;DHT22;2661;50.786;12.728;2023-03-03T05:26:46;-0.40;1.00
5276;DHT22;2661;50.786;12.728;2023-03-03T05:29:13;-0.40;1.00
5276;DHT22;2661;50.786;12.728;2023-03-03T05:31:40;-0.30;1.00
5276;DHT22;2661;50.786;12.728;2023-03-03T05:34:09;-0.40;1.00
5276;DHT22;2661;50.786;12.728;2023-03-03T05:36:35;-0.30;1.00
5276;DHT22;2661;50.786;12.728;2023-03-03T05:39:02;-0.40;1.00
5276;DHT22;2661;50.786;12.728;2023-03-03T05:41:29;-0.40;1.00
5276;DHT22;2661;50.786;12.728;2023-03-03T05:43:56;-0.40;1.00
5276;DHT22;2661;50.786;12.728;2023-03-03T05:46:22;-0.30;1.00
5276;DHT22;2661;50.786;12.728;2023-03-03T05:48:49;-0.30;1.00
5276;DHT22;2661;50.786;12.728;2023-03-03T05:51:15;-0.30;1.00
5276;DHT22;2661;50.786;12.728;2023-03-03T05:53:42;-0.20;1.00
5276;DHT22;2661;50.786;12.728;2023-03-03T05:56:08;-0.30;1.00
5276;DHT22;2661;50.786;12.728;2023-03-03T05:58:35;-0.30;1.00
5276;DHT22;2661;50.786;12.728;2023-03-03T06:01:01;-0.30;1.00
5276;DHT22;2661;50.786;12.728;2023-03-03T06:03:28;-0.20;1.00
5276;DHT22;2661;50.786;12.728;2023-03-03T06:05:55;-0.30;1.00
5276;DHT22;2661;50.786;12.728;2023-03-03T06:08:21;-0.20;1.00
5276;DHT22;2661;50.786;12.728;2023-03-03T06:10:48;-0.20;1.00
5276;DHT22;2661;50.786;12.728;2023-03-03T06:13:15;-0.30;1.00
5276;DHT22;2661;50.786;12.728;2023-03-03T06:15:41;-0.20;1.00
5276;DHT22;2661;50.786;12.728;2023-03-03T06:18:08;-0.20;1.00
5276;DHT22;2661;50.786;12.728;2023-03-03T06:20:35;-0.20;1.00
5276;DHT22;2661;50.786;12.728;2023-03-03T06:23:02;-0.10;1.00
5276;DHT22;2661;50.786;12.728;2023-03-03T06:25:28;-0.20;1.00
5276;DHT22;2661;50.786;12.728;2023-03-03T06:27:55;-0.30;1.00
5276;DHT22;2661;50.786;12.728;2023-03-03T06:30:21;-0.20;1.00
5276;DHT22;2661;50.786;12.728;2023-03-03T06:32:48;-0.20;1.00
5276;DHT22;2661;50.786;12.728;2023-03-03T06:35:14;-0.20;1.00
5276;DHT22;2661;50.786;12.728;2023-03-03T06:37:41;-0.10;1.00
5276;DHT22;2661;50.786;12.728;2023-03-03T06:40:08;-0.20;1.00
5276;DHT22;2661;50.786;12.728;2023-03-03T06:42:34;-0.20;1.00
5276;DHT22;2661;50.786;12.728;2023-03-03T06:45:01;-0.10;1.00
5276;DHT22;2661;50.786;12.728;2023-03-03T06:47:27;-0.10;1.00
5276;DHT22;2661;50.786;12.728;2023-03-03T06:49:54;-0.10;1.00
5276;DHT22;2661;50.786;12.728;2023-03-03T06:52:22;-0.10;1.00
5276;DHT22;2661;50.786;12.728;2023-03-03T06:54:49;0.00;1.00
5276;DHT22;2661;50.786;12.728;2023-03-03T06:57:19;0.00;1.00
5276;DHT22;2661;50.786;12.728;2023-03-03T06:59:49;0.00;1.00
5276;DHT22;2661;50.786;12.728;2023-03-03T07:02:17;0.00;1.00
5276;DHT22;2661;50.786;12.728;2023-03-03T07:04:44;0.10;1.00
5276;DHT22;2661;50.786;12.728;2023-03-03T07:07:15;0.20;1.00
5276;DHT22;2661;50.786;12.728;2023-03-03T07:09:43;0.20;1.00
5276;DHT22;2661;50.786;12.728;2023-03-03T07:12:10;0.20;1.00
5276;DHT22;2661;50.786;12.728;2023-03-03T07:14:42;0.20;1.00
5276;DHT22;2661;50.786;12.728;2023-03-03T07:17:19;0.20;1.00
5276;DHT22;2661;50.786;12.728;2023-03-03T07:19:46;0.20;1.00
5276;DHT22;2661;50.786;12.728;2023-03-03T07:22:17;0.20;1.00
5276;DHT22;2661;50.786;12.728;2023-03-03T07:24:45;0.40;1.00
5276;DHT22;2661;50.786;12.728;2023-03-03T07:27:30;0.50;1.00
5276;DHT22;2661;50.786;12.728;2023-03-03T07:32:43;0.40;99.90
5276;DHT22;2661;50.786;12.728;2023-03-03T07:37:43;0.50;1.00
5276;DHT22;2661;50.786;12.728;2023-03-03T07:42:48;0.50;99.90
5276;DHT22;2661;50.786;12.728;2023-03-03T07:45:21;0.50;99.90
5276;DHT22;2661;50.786;12.728;2023-03-03T07:47:48;0.40;99.90
5276;DHT22;2661;50.786;12.728;2023-03-03T07:50:15;0.50;99.90
5276;DHT22;2661;50.786;12.728;2023-03-03T07:52:49;0.30;99.90
5276;DHT22;2661;50.786;12.728;2023-03-03T07:55:40;0.50;99.90
5276;DHT22;2661;50.786;12.728;2023-03-03T08:03:28;0.50;99.90
5276;DHT22;2661;50.786;12.728;2023-03-03T08:05:55;0.50;99.90
5276;DHT22;2661;50.786;12.728;2023-03-03T08:08:28;0.40;99.90
5276;DHT22;2661;50.786;12.728;2023-03-03T08:10:57;0.30;99.90
5276;DHT22;2661;50.786;12.728;2023-03-03T08:13:28;0.30;99.90
5276;DHT22;2661;50.786;12.728;2023-03-03T08:21:24;0.40;99.90
5276;DHT22;2661;50.786;12.728;2023-03-03T08:23:51;0.50;99.90
5276;DHT22;2661;50.786;12.728;2023-03-03T08:26:20;0.60;99.90
5276;DHT22;2661;50.786;12.728;2023-03-03T08:28:47;0.50;99.90
5276;DHT22;2661;50.786;12.728;2023-03-03T08:31:14;0.50;99.90
5276;DHT22;2661;50.786;12.728;2023-03-03T08:33:50;0.30;99.90
5276;DHT22;2661;50.786;12.728;2023-03-03T08:36:17;0.40;1.00
5276;DHT22;2661;50.786;12.728;2023-03-03T08:38:43;0.50;1.00
5276;DHT22;2661;50.786;12.728;2023-03-03T08:41:10;0.30;99.90
5276;DHT22;2661;50.786;12.728;2023-03-03T08:43:37;0.30;1.00
5276;DHT22;2661;50.786;12.728;2023-03-03T08:46:04;0.10;99.90
5276;DHT22;2661;50.786;12.728;2023-03-03T08:48:31;0.20;1.00
5276;DHT22;2661;50.786;12.728;2023-03-03T08:50:58;0.20;1.00
5276;DHT22;2661;50.786;12.728;2023-03-03T08:53:25;0.20;1.00
5276;DHT22;2661;50.786;12.728;2023-03-03T08:55:52;0.00;1.00
5276;DHT22;2661;50.786;12.728;2023-03-03T08:58:19;0.00;1.00
5276;DHT22;2661;50.786;12.728;2023-03-03T09:00:59;0.10;1.00
5276;DHT22;2661;50.786;12.728;2023-03-03T09:03:25;0.10;1.00
5276;DHT22;2661;50.786;12.728;2023-03-03T09:05:52;0.40;1.00
5276;DHT22;2661;50.786;12.728;2023-03-03T09:08:19;0.40;99.90
5276;DHT22;2661;50.786;12.728;2023-03-03T09:10:46;0.30;99.90
5276;DHT22;2661;50.786;12.728;2023-03-03T09:13:13;0.50;99.90
5276;DHT22;2661;50.786;12.728;2023-03-03T09:15:40;0.40;99.90
5276;DHT22;2661;50.786;12.728;2023-03-03T09:18:20;0.40;99.90
5276;DHT22;2661;50.786;12.728;2023-03-03T09:20:48;0.30;99.90
5276;DHT22;2661;50.786;12.728;2023-03-03T09:23:20;0.40;1.00
5276;DHT22;2661;50.786;12.728;2023-03-03T09:25:50;0.50;99.90
5276;DHT22;2661;50.786;12.728;2023-03-03T09:30:47;0.60;99.90
5276;DHT22;2661;50.786;12.728;2023-03-03T09:33:19;0.60;99.90
5276;DHT22;2661;50.786;12.728;2023-03-03T09:35:46;0.60;99.90
5276;DHT22;2661;50.786;12.728;2023-03-03T09:40:56;0.60;99.90
5276;DHT22;2661;50.786;12.728;2023-03-03T09:46:08;0.70;99.90
5276;DHT22;2661;50.786;12.728;2023-03-03T09:48:39;0.80;99.90
5276;DHT22;2661;50.786;12.728;2023-03-03T09:51:10;0.90;99.90
5276;DHT22;2661;50.786;12.728;2023-03-03T09:56:34;0.90;99.90
5276;DHT22;2661;50.786;12.728;2023-03-03T10:01:58;1.00;99.90
5276;DHT22;2661;50.786;12.728;2023-03-03T10:09:45;1.10;99.90
5276;DHT22;2661;50.786;12.728;2023-03-03T10:17:31;1.10;99.90
5276;DHT22;2661;50.786;12.728;2023-03-03T10:20:05;1.10;99.90
5276;DHT22;2661;50.786;12.728;2023-03-03T10:22:35;1.00;99.90
5276;DHT22;2661;50.786;12.728;2023-03-03T10:25:13;1.00;99.90
5276;DHT22;2661;50.786;12.728;2023-03-03T10:30:38;1.10;99.90
5276;DHT22;2661;50.786;12.728;2023-03-03T10:35:59;0.90;98.10
5276;DHT22;2661;50.786;12.728;2023-03-03T10:41:12;1.10;90.50
5276;DHT22;2661;50.786;12.728;2023-03-03T10:54:19;1.10;69.70
5276;DHT22;2661;50.786;12.728;2023-03-03T11:03:54;0.80;99.90
5276;DHT22;2661;50.786;12.728;2023-03-03T11:08:54;0.90;99.90
5276;DHT22;2661;50.786;12.728;2023-03-03T11:11:32;0.70;99.90
5276;DHT22;2661;50.786;12.728;2023-03-03T11:14:02;0.70;99.90
5276;DHT22;2661;50.786;12.728;2023-03-03T11:21:37;0.90;98.60
5276;DHT22;2661;50.786;12.728;2023-03-03T11:26:49;0.90;99.90
5276;DHT22;2661;50.786;12.728;2023-03-03T11:29:21;1.10;99.90
5276;DHT22;2661;50.786;12.728;2023-03-03T11:32:08;1.20;94.20
5276;DHT22;2661;50.786;12.728;2023-03-03T11:34:44;1.20;68.10
5276;DHT22;2661;50.786;12.728;2023-03-03T11:37:27;1.10;82.40
5276;DHT22;2661;50.786;12.728;2023-03-03T11:39:56;1.20;59.90
5276;DHT22;2661;50.786;12.728;2023-03-03T11:45:02;1.30;57.50
5276;DHT22;2661;50.786;12.728;2023-03-03T11:47:33;1.30;56.90
5276;DHT22;2661;50.786;12.728;2023-03-03T11:55:16;1.10;39.50
5276;DHT22;2661;50.786;12.728;2023-03-03T11:57:49;1.00;34.60
5276;DHT22;2661;50.786;12.728;2023-03-03T12:08:05;1.10;78.90
5276;DHT22;2661;50.786;12.728;2023-03-03T12:10:36;1.00;48.90
5276;DHT22;2661;50.786;12.728;2023-03-03T12:13:26;0.90;49.50
5276;DHT22;2661;50.786;12.728;2023-03-03T12:29:39;1.20;90.60
5276;DHT22;2661;50.786;12.728;2023-03-03T12:32:14;1.10;70.60
5276;DHT22;2661;50.786;12.728;2023-03-03T12:44:43;1.10;87.40
5276;DHT22;2661;50.786;12.728;2023-03-03T12:52:37;1.00;43.60
5276;DHT22;2661;50.786;12.728;2023-03-03T12:55:15;0.90;34.50
5276;DHT22;2661;50.786;12.728;2023-03-03T12:57:49;0.90;65.60
5276;DHT22;2661;50.786;12.728;2023-03-03T13:02:46;0.90;99.90
5276;DHT22;2661;50.786;12.728;2023-03-03T13:08:23;0.80;99.90
5276;DHT22;2661;50.786;12.728;2023-03-03T13:13:27;0.70;67.40
5276;DHT22;2661;50.786;12.728;2023-03-03T13:15:57;0.70;77.70
5276;DHT22;2661;50.786;12.728;2023-03-03T13:18:34;0.80;69.60
5276;DHT22;2661;50.786;12.728;2023-03-03T13:21:18;0.90;95.10
5276;DHT22;2661;50.786;12.728;2023-03-03T13:23:53;1.00;83.00
5276;DHT22;2661;50.786;12.728;2023-03-03T13:26:28;1.00;69.70
5276;DHT22;2661;50.786;12.728;2023-03-03T13:28:59;0.90;57.30
5276;DHT22;2661;50.786;12.728;2023-03-03T13:31:30;0.80;67.30
5276;DHT22;2661;50.786;12.728;2023-03-03T13:33:58;0.80;61.00
5276;DHT22;2661;50.786;12.728;2023-03-03T13:36:28;0.70;51.20
5276;DHT22;2661;50.786;12.728;2023-03-03T13:38:58;0.80;56.20
5276;DHT22;2661;50.786;12.728;2023-03-03T13:41:30;0.80;59.60
5276;DHT22;2661;50.786;12.728;2023-03-03T13:44:01;0.80;58.20
5276;DHT22;2661;50.786;12.728;2023-03-03T13:46:53;0.90;67.20
5276;DHT22;2661;50.786;12.728;2023-03-03T13:49:28;0.80;72.30
5276;DHT22;2661;50.786;12.728;2023-03-03T13:52:01;0.70;70.20
5276;DHT22;2661;50.786;12.728;2023-03-03T13:54:35;0.70;64.80
5276;DHT22;2661;50.786;12.728;2023-03-03T14:00:04;0.80;66.30
5276;DHT22;2661;50.786;12.728;2023-03-03T14:07:58;0.90;55.40
5276;DHT22;2661;50.786;12.728;2023-03-03T14:10:33;0.80;49.40
5276;DHT22;2661;50.786;12.728;2023-03-03T14:13:04;0.60;50.40
5276;DHT22;2661;50.786;12.728;2023-03-03T14:15:37;0.60;60.70
5276;DHT22;2661;50.786;12.728;2023-03-03T14:20:54;0.80;54.30
5276;DHT22;2661;50.786;12.728;2023-03-03T14:23:32;0.80;40.60
5276;DHT22;2661;50.786;12.728;2023-03-03T14:28:40;0.90;39.30
5276;DHT22;2661;50.786;12.728;2023-03-03T14:31:23;0.90;41.80
5276;DHT22;2661;50.786;12.728;2023-03-03T14:36:25;0.80;32.80
5276;DHT22;2661;50.786;12.728;2023-03-03T14:38:55;0.90;29.90
5276;DHT22;2661;50.786;12.728;2023-03-03T14:41:33;0.80;32.50
5276;DHT22;2661;50.786;12.728;2023-03-03T14:44:03;0.70;30.80
5276;DHT22;2661;50.786;12.728;2023-03-03T14:46:51;0.60;34.20
5276;DHT22;2661;50.786;12.728;2023-03-03T14:49:30;0.70;31.00
5276;DHT22;2661;50.786;12.728;2023-03-03T14:52:01;0.70;43.70
5276;DHT22;2661;50.786;12.728;2023-03-03T14:54:33;0.60;37.60
5276;DHT22;2661;50.786;12.728;2023-03-03T14:57:08;0.80;19.00
5276;DHT22;2661;50.786;12.728;2023-03-03T14:59:36;0.80;28.70
5276;DHT22;2661;50.786;12.728;2023-03-03T15:04:38;0.90;25.00
5276;DHT22;2661;50.786;12.728;2023-03-03T15:10:01;0.90;37.50
5276;DHT22;2661;50.786;12.728;2023-03-03T15:17:34;1.00;31.20
5276;DHT22;2661;50.786;12.728;2023-03-03T15:20:09;1.00;28.20
5276;DHT22;2661;50.786;12.728;2023-03-03T15:22:47;1.00;36.40
5276;DHT22;2661;50.786;12.728;2023-03-03T15:25:21;1.00;36.10
5276;DHT22;2661;50.786;12.728;2023-03-03T15:28:06;1.00;46.80
5276;DHT22;2661;50.786;12.728;2023-03-03T15:30:52;1.00;43.80
5276;DHT22;2661;50.786;12.728;2023-03-03T15:35:51;0.90;31.40
5276;DHT22;2661;50.786;12.728;2023-03-03T15:45:56;0.80;21.60
5276;DHT22;2661;50.786;12.728;2023-03-03T16:01:23;0.40;24.70
5276;DHT22;2661;50.786;12.728;2023-03-03T16:03:55;0.30;30.00
5276;DHT22;2661;50.786;12.728;2023-03-03T16:09:23;0.40;35.70
5276;DHT22;2661;50.786;12.728;2023-03-03T16:11:53;0.40;23.40
5276;DHT22;2661;50.786;12.728;2023-03-03T16:17:07;0.20;28.10
5276;DHT22;2661;50.786;12.728;2023-03-03T16:25:19;0.30;28.20
5276;DHT22;2661;50.786;12.728;2023-03-03T16:28:01;0.40;34.80
5276;DHT22;2661;50.786;12.728;2023-03-03T16:30:39;0.40;26.20
5276;DHT22;2661;50.786;12.728;2023-03-03T16:33:20;0.40;28.30
5276;DHT22;2661;50.786;12.728;2023-03-03T16:35:50;0.40;31.20
5276;DHT22;2661;50.786;12.728;2023-03-03T16:38:32;0.40;21.50
5276;DHT22;2661;50.786;12.728;2023-03-03T16:41:00;0.50;28.00
5276;DHT22;2661;50.786;12.728;2023-03-03T16:49:02;0.50;34.70
5276;DHT22;2661;50.786;12.728;2023-03-03T16:51:44;0.50;35.10
5276;DHT22;2661;50.786;12.728;2023-03-03T16:57:04;0.40;26.80
5276;DHT22;2661;50.786;12.728;2023-03-03T16:59:35;0.40;30.60
5276;DHT22;2661;50.786;12.728;2023-03-03T17:07:43;0.50;33.10
5276;DHT22;2661;50.786;12.728;2023-03-03T17:10:19;0.50;26.00
5276;DHT22;2661;50.786;12.728;2023-03-03T17:15:37;0.50;33.10
5276;DHT22;2661;50.786;12.728;2023-03-03T17:18:09;0.50;39.90
5276;DHT22;2661;50.786;12.728;2023-03-03T17:23:26;0.50;55.00
5276;DHT22;2661;50.786;12.728;2023-03-03T17:28:35;0.60;51.40
5276;DHT22;2661;50.786;12.728;2023-03-03T17:36:16;0.60;48.10
5276;DHT22;2661;50.786;12.728;2023-03-03T17:38:52;0.60;49.80
5276;DHT22;2661;50.786;12.728;2023-03-03T17:43:56;0.50;57.90
5276;DHT22;2661;50.786;12.728;2023-03-03T17:47:08;0.50;48.90
5276;DHT22;2661;50.786;12.728;2023-03-03T17:49:24;0.50;60.40
5276;DHT22;2661;50.786;12.728;2023-03-03T17:52:04;0.50;52.60
5276;DHT22;2661;50.786;12.728;2023-03-03T17:54:38;0.50;49.10
5276;DHT22;2661;50.786;12.728;2023-03-03T17:57:18;0.50;39.80
5276;DHT22;2661;50.786;12.728;2023-03-03T18:08:01;0.50;59.80
5276;DHT22;2661;50.786;12.728;2023-03-03T18:13:05;0.50;85.10
5276;DHT22;2661;50.786;12.728;2023-03-03T18:21:29;0.70;80.40
5276;DHT22;2661;50.786;12.728;2023-03-03T18:27:11;0.60;65.10
5276;DHT22;2661;50.786;12.728;2023-03-03T18:29:38;0.60;62.60
5276;DHT22;2661;50.786;12.728;2023-03-03T18:32:19;0.60;46.90
5276;DHT22;2661;50.786;12.728;2023-03-03T18:34:48;0.60;30.30
5276;DHT22;2661;50.786;12.728;2023-03-03T18:37:37;0.60;91.60
5276;DHT22;2661;50.786;12.728;2023-03-03T18:42:39;0.60;93.60
5276;DHT22;2661;50.786;12.728;2023-03-03T18:45:10;0.60;98.20
5276;DHT22;2661;50.786;12.728;2023-03-03T18:47:56;0.60;88.10
5276;DHT22;2661;50.786;12.728;2023-03-03T18:50:32;0.70;89.10
5276;DHT22;2661;50.786;12.728;2023-03-03T18:53:06;0.70;84.70
5276;DHT22;2661;50.786;12.728;2023-03-03T18:55:39;0.70;84.00
5276;DHT22;2661;50.786;12.728;2023-03-03T19:00:47;0.60;74.30
5276;DHT22;2661;50.786;12.728;2023-03-03T19:06:00;0.60;99.90
5276;DHT22;2661;50.786;12.728;2023-03-03T19:08:29;0.60;96.10
5276;DHT22;2661;50.786;12.728;2023-03-03T19:11:26;0.60;99.90
5276;DHT22;2661;50.786;12.728;2023-03-03T19:16:51;0.60;99.00
5276;DHT22;2661;50.786;12.728;2023-03-03T19:19:19;0.60;94.80
5276;DHT22;2661;50.786;12.728;2023-03-03T19:22:13;0.60;94.30
5276;DHT22;2661;50.786;12.728;2023-03-03T19:24:42;0.60;99.90
5276;DHT22;2661;50.786;12.728;2023-03-03T19:27:31;0.60;97.70
5276;DHT22;2661;50.786;12.728;2023-03-03T19:30:10;0.60;98.20
5276;DHT22;2661;50.786;12.728;2023-03-03T19:35:27;0.70;96.30
5276;DHT22;2661;50.786;12.728;2023-03-03T19:40:33;0.60;99.90
5276;DHT22;2661;50.786;12.728;2023-03-03T19:43:06;0.70;99.90
5276;DHT22;2661;50.786;12.728;2023-03-03T19:51:00;0.70;99.90
5276;DHT22;2661;50.786;12.728;2023-03-03T19:56:35;0.70;99.90
5276;DHT22;2661;50.786;12.728;2023-03-03T19:59:26;0.70;99.90
5276;DHT22;2661;50.786;12.728;2023-03-03T20:02:01;0.70;93.00
5276;DHT22;2661;50.786;12.728;2023-03-03T20:04:34;0.70;93.40
5276;DHT22;2661;50.786;12.728;2023-03-03T20:09:50;0.70;86.50
5276;DHT22;2661;50.786;12.728;2023-03-03T20:20:06;0.70;93.40
5276;DHT22;2661;50.786;12.728;2023-03-03T20:28:05;0.80;94.10
5276;DHT22;2661;50.786;12.728;2023-03-03T20:30:49;0.80;83.30
5276;DHT22;2661;50.786;12.728;2023-03-03T20:35:56;0.80;93.70
5276;DHT22;2661;50.786;12.728;2023-03-03T20:41:03;0.80;84.70
5276;DHT22;2661;50.786;12.728;2023-03-03T20:46:13;0.80;99.90
5276;DHT22;2661;50.786;12.728;2023-03-03T20:51:24;0.80;91.40
5276;DHT22;2661;50.786;12.728;2023-03-03T20:53:57;0.90;97.90
5276;DHT22;2661;50.786;12.728;2023-03-03T20:56:35;0.80;99.90
5276;DHT22;2661;50.786;12.728;2023-03-03T21:01:46;0.80;93.00
5276;DHT22;2661;50.786;12.728;2023-03-03T21:04:27;0.90;95.00
5276;DHT22;2661;50.786;12.728;2023-03-03T21:06:56;0.80;93.00
5276;DHT22;2661;50.786;12.728;2023-03-03T21:09:27;0.80;94.70
5276;DHT22;2661;50.786;12.728;2023-03-03T21:11:55;0.70;93.80
5276;DHT22;2661;50.786;12.728;2023-03-03T21:16:49;0.70;92.90
5276;DHT22;2661;50.786;12.728;2023-03-03T21:19:23;0.70;91.30
5276;DHT22;2661;50.786;12.728;2023-03-03T21:21:51;0.80;92.50
5276;DHT22;2661;50.786;12.728;2023-03-03T21:24:18;0.80;90.90
5276;DHT22;2661;50.786;12.728;2023-03-03T21:26:52;0.90;97.10
5276;DHT22;2661;50.786;12.728;2023-03-03T21:31:50;0.80;99.20
5276;DHT22;2661;50.786;12.728;2023-03-03T21:34:18;0.80;94.20